Time;durP1;ratioP1;P1;durP2;ratioP2;P2;SDS_P1;SDS_P2;PMS_P1;PMS_P2;Temp;Humidity;BMP_temperature;BMP_pressure;BME280_temperature;BME280_humidity;BME280_pressure;Samples;Min_cycle;Max_cycle;Signal;HPM_P1;HPM_P2
2023/07/14 00:00:16;;;;;;;;;13.25;12.50;;;;;28.18;37.10;101676.50;5096104;27;45374;-73
2023/07/14 00:02:43;;;;;;;;;11.50;11.00;;;;;28.16;37.22;101674.00;5096332;27;45351;-74
2023/07/14 00:05:14;;;;;;;;;10.00;8.67;;;;;28.18;36.93;101674.63;5096084;27;45424;-74
2023/07/14 00:07:39;;;;;;;;;9.00;8.00;;;;;28.19;37.57;101667.44;5096131;27;46024;-74
2023/07/14 00:10:15;;;;;;;;;9.75;9.75;;;;;28.20;36.79;101663.72;5094454;27;45320;-74
2023/07/14 00:12:41;;;;;;;;;10.75;10.00;;;;;28.18;37.29;101658.56;5096285;27;45269;-74
2023/07/14 00:15:06;;;;;;;;;9.00;9.00;;;;;28.19;37.28;101659.41;5096070;27;45338;-74
2023/07/14 00:17:32;;;;;;;;;10.67;9.33;;;;;28.21;36.72;101672.59;5095707;27;46019;-73
2023/07/14 00:19:59;;;;;;;;;8.00;6.67;;;;;28.20;37.51;101663.72;5095928;27;45430;-74
2023/07/14 00:22:25;;;;;;;;;9.00;9.00;;;;;28.21;36.92;101656.53;5095996;27;45459;-73
2023/07/14 00:24:51;;;;;;;;;10.25;9.00;;;;;28.22;37.16;101664.34;5095613;27;45379;-73
2023/07/14 00:27:18;;;;;;;;;10.00;10.00;;;;;28.21;36.93;101661.88;5095742;27;46187;-73
2023/07/14 00:29:45;;;;;;;;;14.25;12.00;;;;;28.19;37.15;101659.41;5095914;27;45373;-74
2023/07/14 00:32:14;;;;;;;;;11.00;8.25;;;;;28.17;37.22;101640.88;5095816;27;45409;-74
2023/07/14 00:34:39;;;;;;;;;10.50;9.50;;;;;28.18;37.42;101645.19;5095806;27;45433;-74
2023/07/14 00:37:05;;;;;;;;;9.25;9.25;;;;;28.20;37.23;101647.69;5095733;27;46020;-74
2023/07/14 00:39:30;;;;;;;;;10.00;9.00;;;;;28.18;37.65;101637.16;5095238;27;45419;-74
2023/07/14 00:41:56;;;;;;;;;9.75;8.25;;;;;28.20;37.63;101638.81;5099460;27;45324;-74
2023/07/14 00:44:22;;;;;;;;;8.67;8.67;;;;;28.14;36.90;101625.25;5099398;27;45331;-74
2023/07/14 00:46:48;;;;;;;;;8.67;8.00;;;;;28.18;37.27;101629.13;5098803;27;47064;-74
2023/07/14 00:49:22;;;;;;;;;11.67;10.00;;;;;28.17;37.28;101630.19;5099255;27;45348;-73
2023/07/14 00:51:48;;;;;;;;;8.67;8.67;;;;;28.18;37.32;101631.81;5099028;27;45352;-74
2023/07/14 00:54:28;;;;;;;;;8.00;7.00;;;;;28.18;36.78;101629.13;5098873;27;45291;-74
2023/07/14 00:56:55;;;;;;;;;4.67;3.00;;;;;28.15;36.94;101618.03;5098997;27;46090;-73
2023/07/14 00:59:28;;;;;;;;;11.00;9.00;;;;;28.20;37.20;101623.59;5098638;27;45335;-74
2023/07/14 01:02:20;;;;;;;;;7.33;7.33;;;;;28.21;37.27;101621.75;5099220;27;45391;-73
2023/07/14 01:04:56;;;;;;;;;8.00;8.00;;;;;28.20;37.14;101610.22;5099125;27;45375;-73
2023/07/14 01:07:28;;;;;;;;;8.33;7.33;;;;;28.18;37.50;101604.25;5098466;27;45406;-74
2023/07/14 01:09:56;;;;;;;;;11.00;11.00;;;;;28.18;37.62;101607.75;5098802;27;45318;-74
2023/07/14 01:12:23;;;;;;;;;9.33;8.33;;;;;28.20;37.04;101596.84;5098724;27;45422;-74
2023/07/14 01:14:53;;;;;;;;;10.67;9.33;;;;;28.21;37.29;101601.16;5098801;27;45411;-73
2023/07/14 01:17:21;;;;;;;;;9.00;8.67;;;;;28.22;37.38;101596.63;5098390;27;47133;-74
2023/07/14 01:19:59;;;;;;;;;9.33;7.33;;;;;28.21;36.81;101590.44;5098507;27;45561;-74
2023/07/14 01:22:34;;;;;;;;;7.00;7.00;;;;;28.22;37.52;101593.97;5098351;27;45319;-73
2023/07/14 01:25:12;;;;;;;;;7.33;7.00;;;;;28.22;37.19;101583.25;5097342;27;45322;-73
2023/07/14 01:27:37;;;;;;;;;12.33;9.00;;;;;28.15;37.57;101581.41;5098386;27;46365;-74
2023/07/14 01:30:03;;;;;;;;;7.67;7.67;;;;;28.18;37.24;101578.31;5114394;27;45229;-74
2023/07/14 01:32:38;;;;;;;;;9.00;7.33;;;;;28.20;36.90;101574.63;5098633;27;45346;-74
2023/07/14 01:35:07;;;;;;;;;10.00;9.00;;;;;28.21;37.14;101574.41;5098511;27;45193;-74
2023/07/14 01:37:37;;;;;;;;;8.00;8.00;;;;;28.20;37.25;101571.94;5097950;27;46317;-73
2023/07/14 01:40:11;;;;;;;;;9.50;9.50;;;;;28.22;36.80;101567.22;5098049;27;45282;-74
2023/07/14 01:42:38;;;;;;;;;8.67;8.33;;;;;28.20;37.36;101558.56;5098368;27;45270;-74
2023/07/14 01:45:04;;;;;;;;;8.67;8.33;;;;;28.15;37.30;101551.16;5098210;27;45391;-74
2023/07/14 01:47:30;;;;;;;;;7.67;7.00;;;;;28.20;37.17;101555.91;5097909;27;47185;-73
2023/07/14 01:49:58;;;;;;;;;8.00;8.00;;;;;28.14;37.51;101547.66;5098175;27;45622;-74
2023/07/14 01:52:30;;;;;;;;;8.00;7.00;;;;;28.20;37.18;101556.72;5097164;27;45280;-74
2023/07/14 01:55:04;;;;;;;;;7.00;7.00;;;;;28.20;37.42;101558.56;5098279;27;45407;-74
2023/07/14 01:57:34;;;;;;;;;9.00;6.00;;;;;28.20;37.55;101567.44;5098033;27;45927;-74
2023/07/14 02:00:05;;;;;;;;;9.67;8.00;;;;;28.17;36.94;101554.44;5097784;27;45270;-74
2023/07/14 02:02:34;;;;;;;;;8.00;7.33;;;;;28.17;37.15;101557.97;5098123;27;45386;-74
2023/07/14 02:05:05;;;;;;;;;11.00;9.33;;;;;28.14;37.34;101555.69;5097708;27;45381;-74
2023/07/14 02:07:30;;;;;;;;;9.67;8.00;;;;;28.19;37.08;101557.75;5097571;27;47190;-74
2023/07/14 02:09:55;;;;;;;;;9.00;6.67;;;;;28.20;37.51;101564.75;5097759;27;45553;-73
2023/07/14 02:12:31;;;;;;;;;9.00;9.00;;;;;28.20;37.36;101554.03;5098043;27;45352;-74
2023/07/14 02:15:07;;;;;;;;;6.67;6.67;;;;;28.24;37.26;101562.47;5097898;27;45481;-73
2023/07/14 02:17:35;;;;;;;;;7.33;7.33;;;;;28.17;37.80;101549.09;5097426;27;46399;-74
2023/07/14 02:20:06;;;;;;;;;7.67;7.33;;;;;28.20;37.52;101553.22;5097210;27;45532;-74
2023/07/14 02:22:33;;;;;;;;;7.00;6.33;;;;;28.22;37.02;101548.47;5097796;27;45397;-73
2023/07/14 02:25:02;;;;;;;;;8.00;8.00;;;;;28.20;37.16;101543.34;5097703;27;45381;-73
2023/07/14 02:27:28;;;;;;;;;9.33;9.33;;;;;28.20;37.35;101540.66;5097570;27;46048;-73
2023/07/14 02:29:59;;;;;;;;;8.00;8.00;;;;;28.22;37.36;101548.47;5097408;27;45318;-74
2023/07/14 02:32:32;;;;;;;;;6.00;6.00;;;;;28.20;37.34;101529.97;5097835;27;45467;-74
2023/07/14 02:35:30;;;;;;;;;7.33;7.33;;;;;28.22;37.14;101535.94;5097073;27;45331;-74
2023/07/14 02:38:08;;;;;;;;;1.33;0.33;;;;;28.23;36.84;101526.06;5097359;27;47226;-74
2023/07/14 02:40:38;;;;;;;;;7.67;7.00;;;;;28.22;36.80;101527.06;5097426;27;45368;-74
2023/07/14 02:43:09;;;;;;;;;8.67;6.33;;;;;28.22;37.33;101517.19;5097448;27;45272;-73
2023/07/14 02:45:43;;;;;;;;;7.33;6.67;;;;;28.22;37.28;101513.69;5097218;27;45219;-73
2023/07/14 02:48:15;;;;;;;;;9.33;7.00;;;;;28.18;37.46;101515.97;5097022;27;45494;-74
2023/07/14 02:50:40;;;;;;;;;6.67;6.33;;;;;28.21;37.59;101528.13;5096939;27;45428;-73
2023/07/14 02:53:06;;;;;;;;;4.33;3.33;;;;;28.22;37.10;101527.06;5097371;27;45338;-74
2023/07/14 02:55:31;;;;;;;;;6.33;6.33;;;;;28.20;37.32;101526.47;5097199;27;45353;-74
2023/07/14 02:57:56;;;;;;;;;5.00;5.00;;;;;28.16;37.01;101516.16;5097165;27;45203;-74
2023/07/14 03:00:22;;;;;;;;;6.67;5.67;;;;;28.21;36.97;101520.09;5096928;27;45620;-74
2023/07/14 03:02:47;;;;;;;;;8.33;7.33;;;;;28.21;36.94;101523.56;5096771;27;45279;-74
2023/07/14 03:05:12;;;;;;;;;7.00;7.00;;;;;28.18;36.89;101516.78;5097241;27;45525;-74
2023/07/14 03:07:39;;;;;;;;;7.00;7.00;;;;;28.22;37.22;101519.06;5096973;27;46071;-73
2023/07/14 03:10:06;;;;;;;;;7.33;7.00;;;;;28.17;37.10;101517.81;5097036;27;45569;-73
2023/07/14 03:12:31;;;;;;;;;6.00;6.00;;;;;28.21;37.38;101517.41;5096926;27;45401;-74
2023/07/14 03:14:57;;;;;;;;;4.67;4.67;;;;;28.14;37.53;101490.66;5096949;27;45322;-74
2023/07/14 03:17:22;;;;;;;;;5.33;4.67;;;;;28.20;37.44;101481.81;5096351;27;45965;-74
2023/07/14 03:19:47;;;;;;;;;8.33;7.33;;;;;28.15;37.27;101476.25;5096718;27;45393;-74
2023/07/14 03:22:13;;;;;;;;;8.00;8.00;;;;;28.21;37.73;101486.13;5096862;27;45806;-74
2023/07/14 03:24:39;;;;;;;;;6.00;6.00;;;;;28.21;37.38;101485.31;5095490;27;45572;-74
2023/07/14 03:27:04;;;;;;;;;7.00;5.67;;;;;28.21;37.07;101480.78;5096711;27;46021;-74
2023/07/14 03:29:29;;;;;;;;;7.00;6.00;;;;;28.20;37.59;101475.63;5096517;27;45962;-74
2023/07/14 03:31:55;;;;;;;;;7.00;7.00;;;;;28.23;37.37;101476.06;5096468;27;45386;-74
2023/07/14 03:34:22;;;;;;;;;6.00;5.00;;;;;28.22;37.42;101465.53;5096565;27;45484;-74
2023/07/14 03:36:48;;;;;;;;;4.67;4.00;;;;;28.21;37.41;101463.91;5096289;27;46254;-74
2023/07/14 03:39:27;;;;;;;;;8.00;5.00;;;;;28.24;37.39;101469.66;5096182;27;45342;-73
2023/07/14 03:41:54;;;;;;;;;7.33;5.00;;;;;28.23;36.97;101468.03;5096552;27;45350;-73
2023/07/14 03:44:20;;;;;;;;;5.67;5.67;;;;;28.23;36.87;101464.53;5096364;27;45579;-74
2023/07/14 03:46:46;;;;;;;;;5.33;5.33;;;;;28.22;37.30;101462.88;5095462;27;46309;-74
2023/07/14 03:49:13;;;;;;;;;7.67;6.33;;;;;28.23;37.22;101464.53;5096433;27;45429;-73
2023/07/14 03:51:38;;;;;;;;;5.00;5.00;;;;;28.22;37.12;101470.91;5096354;27;45409;-74
2023/07/14 03:54:03;;;;;;;;;6.00;6.00;;;;;28.21;36.83;101466.59;5096439;27;45334;-73
2023/07/14 03:56:29;;;;;;;;;6.33;6.33;;;;;28.19;37.13;101469.47;5096260;27;46198;-74
2023/07/14 03:58:54;;;;;;;;;6.33;6.33;;;;;28.20;37.04;101467.59;5096141;27;45223;-74
2023/07/14 04:01:19;;;;;;;;;5.00;5.00;;;;;28.18;37.15;101465.16;5096163;27;45297;-74
2023/07/14 04:03:46;;;;;;;;;5.00;5.00;;;;;28.20;36.82;101465.75;5096568;27;45279;-74
2023/07/14 04:06:12;;;;;;;;;6.33;6.00;;;;;28.18;37.38;101446.44;5096088;27;47399;-74
2023/07/14 04:08:43;;;;;;;;;6.33;5.33;;;;;28.19;37.50;101445.38;5096226;27;45453;-74
2023/07/14 04:11:10;;;;;;;;;4.00;4.00;;;;;28.20;36.97;101448.88;5096388;27;45365;-74
2023/07/14 04:13:35;;;;;;;;;5.67;5.00;;;;;28.20;37.00;101448.88;5096330;27;45252;-74
2023/07/14 04:16:03;;;;;;;;;5.33;5.00;;;;;28.16;37.40;101435.09;5097853;27;46544;-74
2023/07/14 04:18:28;;;;;;;;;5.00;5.00;;;;;28.20;37.15;101438.19;5099352;27;45392;-74
2023/07/14 04:20:54;;;;;;;;;5.33;3.67;;;;;28.19;37.10;101437.34;5099390;27;48345;-74
2023/07/14 04:23:19;;;;;;;;;6.00;5.00;;;;;28.20;37.43;101438.19;5099684;27;45445;-74
2023/07/14 04:25:44;;;;;;;;;5.67;4.67;;;;;28.13;37.35;101425.63;5098281;27;47109;-73
2023/07/14 04:28:10;;;;;;;;;5.33;5.33;;;;;28.21;37.39;101434.50;5099487;27;45358;-75
2023/07/14 04:30:36;;;;;;;;;7.67;4.00;;;;;28.18;37.32;101430.38;5099358;27;45713;-73
2023/07/14 04:33:03;;;;;;;;;5.33;4.00;;;;;28.14;37.61;101405.88;5099556;27;45388;-74
2023/07/14 04:35:29;;;;;;;;;5.67;5.00;;;;;28.21;37.22;101413.88;5098092;27;45955;-74
2023/07/14 04:37:54;;;;;;;;;5.67;5.67;;;;;28.21;37.04;101397.03;5099435;27;45317;-74
2023/07/14 04:40:20;;;;;;;;;5.00;4.00;;;;;28.21;36.85;101389.81;5099275;27;45279;-74
2023/07/14 04:42:47;;;;;;;;;6.67;5.00;;;;;28.21;37.24;101384.47;5099464;27;45308;-74
2023/07/14 04:45:16;;;;;;;;;7.00;6.00;;;;;28.18;37.25;101366.19;5098872;27;46374;-74
2023/07/14 04:47:42;;;;;;;;;4.33;4.33;;;;;28.20;37.23;101350.72;5098869;27;45384;-73
2023/07/14 04:50:07;;;;;;;;;5.00;4.67;;;;;28.21;37.18;101335.50;5099196;27;45301;-74
2023/07/14 04:52:34;;;;;;;;;6.33;5.67;;;;;28.22;36.91;101337.97;5099212;27;45381;-73
2023/07/14 04:54:59;;;;;;;;;5.67;5.67;;;;;28.22;37.19;101355.84;5099050;27;46354;-74
2023/07/14 04:57:24;;;;;;;;;5.00;5.00;;;;;28.20;37.55;101348.06;5098970;27;45236;-74
2023/07/14 04:59:49;;;;;;;;;6.67;4.00;;;;;28.20;37.63;101353.41;5098562;27;45287;-74
2023/07/14 05:02:15;;;;;;;;;3.67;2.00;;;;;28.17;36.98;101351.97;5099086;27;45373;-74
2023/07/14 05:04:44;;;;;;;;;5.67;5.67;;;;;28.20;37.23;101365.94;5098998;27;45393;-74
2023/07/14 05:07:10;;;;;;;;;4.33;4.33;;;;;28.20;37.44;101382.00;5098826;27;45465;-74
2023/07/14 05:09:35;;;;;;;;;6.67;5.67;;;;;28.17;37.07;101384.06;5098922;27;45374;-73
2023/07/14 05:12:01;;;;;;;;;5.00;4.00;;;;;28.18;37.48;101391.06;5098879;27;45376;-73
2023/07/14 05:14:27;;;;;;;;;4.33;4.00;;;;;28.18;37.45;101380.34;5098393;27;45836;-73
2023/07/14 05:16:52;;;;;;;;;5.00;5.00;;;;;28.14;37.16;101381.81;5098574;27;45473;-74
2023/07/14 05:19:18;;;;;;;;;6.00;5.00;;;;;28.17;37.50;101383.25;5098684;27;45297;-73
2023/07/14 05:21:44;;;;;;;;;5.00;5.00;;;;;28.17;37.22;101383.25;5098792;27;45430;-74
2023/07/14 05:24:09;;;;;;;;;5.00;4.00;;;;;28.17;37.12;101380.56;5098546;27;46248;-74
2023/07/14 05:26:34;;;;;;;;;4.33;4.33;;;;;28.17;37.88;101364.53;5097531;27;45424;-74
2023/07/14 05:29:00;;;;;;;;;3.67;3.67;;;;;28.18;37.58;101363.50;5098426;27;45215;-74
2023/07/14 05:31:25;;;;;;;;;6.67;5.67;;;;;28.19;37.13;101367.81;5098667;27;45232;-73
2023/07/14 05:33:50;;;;;;;;;7.00;5.00;;;;;28.17;37.59;101361.84;5098477;27;46316;-74
2023/07/14 05:36:16;;;;;;;;;6.33;6.00;;;;;28.20;37.48;101358.75;5098561;27;45505;-74
2023/07/14 05:38:41;;;;;;;;;5.00;5.00;;;;;28.20;37.38;101349.91;5098556;27;45338;-74
2023/07/14 05:41:08;;;;;;;;;5.33;5.33;;;;;28.22;37.63;101350.50;5098491;27;45448;-74
2023/07/14 05:43:33;;;;;;;;;4.33;3.67;;;;;28.22;37.19;101347.84;5097982;27;45403;-74
2023/07/14 05:45:59;;;;;;;;;6.67;5.00;;;;;28.18;37.51;101345.56;5088812;27;45409;-75
2023/07/14 05:48:25;;;;;;;;;5.00;5.00;;;;;28.22;37.07;101339.81;5097977;27;45476;-73
2023/07/14 05:50:51;;;;;;;;;4.00;4.00;;;;;28.20;37.38;101334.69;5097962;27;45492;-74
2023/07/14 05:53:17;;;;;;;;;5.00;4.67;;;;;28.24;37.78;101327.03;5097908;27;46240;-73
2023/07/14 05:55:43;;;;;;;;;5.00;5.00;;;;;28.21;37.27;101338.19;5098418;27;45324;-74
2023/07/14 05:58:08;;;;;;;;;5.00;5.00;;;;;28.24;37.13;101330.53;5097896;27;45243;-73
2023/07/14 06:00:38;;;;;;;;;7.00;4.33;;;;;28.21;37.29;101322.13;5097998;27;45296;-76
2023/07/14 06:03:06;;;;;;;;;4.00;4.00;;;;;28.23;37.56;101325.41;5098017;27;46486;-73
2023/07/14 06:05:32;;;;;;;;;3.00;3.00;;;;;28.15;36.91;101319.28;5096294;27;45417;-77
2023/07/14 06:07:57;;;;;;;;;3.00;3.00;;;;;28.04;36.26;101325.25;5097906;27;45334;-75
2023/07/14 06:10:23;;;;;;;;;6.00;5.00;;;;;27.94;37.05;101318.50;5097902;27;45346;-77
2023/07/14 06:12:48;;;;;;;;;3.00;3.00;;;;;27.80;36.35;101312.34;5096678;27;46106;-75
2023/07/14 06:15:13;;;;;;;;;4.67;4.33;;;;;27.68;36.44;101312.13;5090620;27;46197;-74
2023/07/14 06:17:39;;;;;;;;;7.67;4.67;;;;;27.56;36.42;101298.56;5096757;27;45441;-73
2023/07/14 06:20:05;;;;;;;;;5.00;3.67;;;;;27.42;36.97;101291.59;5096272;27;45694;-74
2023/07/14 06:22:30;;;;;;;;;5.67;5.33;;;;;27.35;37.11;101294.28;5096866;27;45327;-73
2023/07/14 06:24:56;;;;;;;;;4.33;4.33;;;;;27.27;37.11;101287.31;5097367;27;45238;-74
2023/07/14 06:27:23;;;;;;;;;2.33;2.33;;;;;27.23;37.07;101280.72;5097602;27;45354;-77
2023/07/14 06:29:48;;;;;;;;;3.00;3.00;;;;;27.21;37.24;101266.75;5097824;27;45429;-74
2023/07/14 06:32:16;;;;;;;;;5.67;4.00;;;;;27.24;37.90;101255.66;5097147;27;47261;-74
2023/07/14 06:34:43;;;;;;;;;6.00;2.33;;;;;27.32;37.80;101257.28;5097494;27;45318;-75
2023/07/14 06:37:08;;;;;;;;;3.00;3.00;;;;;27.38;37.91;101265.28;5097251;27;45251;-74
2023/07/14 06:39:33;;;;;;;;;5.00;3.00;;;;;27.43;37.16;101267.34;5096903;27;45360;-74
2023/07/14 06:41:59;;;;;;;;;3.00;3.00;;;;;27.49;38.06;101273.72;5096982;27;46476;-75
2023/07/14 06:44:25;;;;;;;;;3.67;3.67;;;;;27.52;37.79;101258.09;5097498;27;45467;-74
2023/07/14 06:46:51;;;;;;;;;6.33;4.67;;;;;27.61;37.79;101257.88;5097204;27;45231;-74
2023/07/14 06:49:16;;;;;;;;;5.00;3.00;;;;;27.70;37.25;101255.78;5097071;27;45473;-74
2023/07/14 06:51:42;;;;;;;;;4.00;3.00;;;;;27.76;37.16;101251.47;5097055;27;46031;-74
2023/07/14 06:54:07;;;;;;;;;5.00;3.67;;;;;27.80;37.37;101250.03;5097239;27;45295;-74
2023/07/14 06:56:32;;;;;;;;;4.00;3.00;;;;;27.85;37.66;101244.88;5096959;27;45362;-74
2023/07/14 06:58:58;;;;;;;;;6.00;4.67;;;;;27.91;36.95;101253.91;5097412;27;45501;-74
2023/07/14 07:01:25;;;;;;;;;4.00;4.00;;;;;27.92;37.66;101239.53;5097214;27;46343;-74
2023/07/14 07:03:50;;;;;;;;;4.67;3.33;;;;;27.95;37.09;101237.22;5097008;27;45378;-75
2023/07/14 07:06:16;;;;;;;;;4.00;4.00;;;;;28.01;36.80;101237.41;5097044;27;45504;-74
2023/07/14 07:08:41;;;;;;;;;5.00;4.00;;;;;28.02;37.66;101239.91;5097059;27;45403;-74
2023/07/14 07:11:10;;;;;;;;;4.67;3.00;;;;;28.03;37.33;101225.47;5096517;27;45484;-74
2023/07/14 07:13:35;;;;;;;;;4.00;3.00;;;;;28.03;37.04;101221.97;5095457;27;45326;-74
2023/07/14 07:16:00;;;;;;;;;4.00;3.00;;;;;28.06;37.01;101217.03;5096788;27;45297;-74
2023/07/14 07:18:26;;;;;;;;;4.00;4.00;;;;;28.10;37.18;101227.31;5096822;27;45507;-74
2023/07/14 07:20:52;;;;;;;;;6.00;3.00;;;;;28.10;37.32;101219.28;5112365;27;47741;-74
2023/07/14 07:23:18;;;;;;;;;4.33;3.00;;;;;28.11;36.84;101219.06;5096683;27;45342;-74
2023/07/14 07:25:51;;;;;;;;;4.00;4.00;;;;;28.14;37.21;101220.50;5096547;27;45414;-75
2023/07/14 07:28:18;;;;;;;;;2.00;2.00;;;;;28.15;37.62;101216.78;5095534;27;45522;-74
2023/07/14 07:30:43;;;;;;;;;5.00;5.00;;;;;28.07;37.33;101194.63;5095167;27;46516;-74
2023/07/14 07:33:09;;;;;;;;;9.00;3.33;;;;;28.13;37.37;101190.25;5096479;27;45390;-74
2023/07/14 07:35:37;;;;;;;;;4.67;3.33;;;;;28.15;37.48;101192.72;5096747;27;45500;-74
2023/07/14 07:38:03;;;;;;;;;4.00;4.00;;;;;28.18;37.39;101197.66;5096735;27;45437;-74
2023/07/14 07:40:28;;;;;;;;;4.00;4.00;;;;;28.18;37.54;101189.63;5095860;27;46374;-74
2023/07/14 07:42:54;;;;;;;;;4.00;4.00;;;;;28.19;37.59;101180.56;5096523;27;45351;-74
2023/07/14 07:45:19;;;;;;;;;5.33;3.33;;;;;28.23;37.65;101183.63;5096603;27;45412;-74
2023/07/14 07:47:45;;;;;;;;;3.33;3.33;;;;;28.17;37.04;101172.75;5096258;27;45474;-74
2023/07/14 07:50:11;;;;;;;;;4.00;4.00;;;;;28.22;37.25;101168.59;5095435;27;46101;-74
2023/07/14 07:52:36;;;;;;;;;3.33;3.33;;;;;28.23;36.78;101165.72;5096226;27;45469;-74
2023/07/14 07:55:03;;;;;;;;;3.00;3.00;;;;;28.26;36.85;101167.16;5096091;27;45287;-74
2023/07/14 07:57:28;;;;;;;;;5.00;4.00;;;;;28.27;37.17;101169.59;5096423;27;45416;-74
2023/07/14 07:59:53;;;;;;;;;4.00;4.00;;;;;28.28;37.38;101162.41;5096145;27;45389;-74
2023/07/14 08:02:19;;;;;;;;;7.00;4.00;;;;;28.32;36.95;101152.06;5096390;27;45484;-74
2023/07/14 08:04:44;;;;;;;;;3.33;3.00;;;;;28.34;37.42;101140.13;5096428;27;45358;-74
2023/07/14 08:07:11;;;;;;;;;5.00;4.00;;;;;28.38;37.61;101160.06;5096344;27;45407;-74
2023/07/14 08:09:36;;;;;;;;;3.00;3.00;;;;;28.40;37.40;101143.78;5096087;27;45344;-74
2023/07/14 08:12:02;;;;;;;;;5.00;3.33;;;;;28.39;37.52;101131.47;5096094;27;45338;-74
2023/07/14 08:14:28;;;;;;;;;5.00;4.00;;;;;28.39;37.24;101129.59;5096344;27;45289;-74
2023/07/14 08:16:53;;;;;;;;;3.33;2.67;;;;;28.42;37.46;101138.22;5095929;27;45352;-74
2023/07/14 08:19:18;;;;;;;;;3.33;2.33;;;;;28.40;37.45;101128.56;5095954;27;46230;-74
2023/07/14 08:21:44;;;;;;;;;3.67;3.00;;;;;28.35;37.03;101116.84;5096807;27;45390;-73
2023/07/14 08:24:10;;;;;;;;;4.67;4.00;;;;;28.40;37.48;101125.06;5096070;27;45235;-73
2023/07/14 08:26:36;;;;;;;;;2.67;2.67;;;;;28.40;37.68;101125.88;5096183;27;45464;-73
2023/07/14 08:29:03;;;;;;;;;4.00;4.00;;;;;28.41;37.51;101137.41;5095853;27;45356;-74
2023/07/14 08:31:29;;;;;;;;;3.00;3.00;;;;;28.40;37.10;101122.38;5095626;27;45461;-74
2023/07/14 08:33:54;;;;;;;;;4.33;4.00;;;;;28.40;37.00;101109.81;5095997;27;45346;-74
2023/07/14 08:36:19;;;;;;;;;3.33;3.33;;;;;28.42;37.48;101111.47;5095545;27;45366;-74
2023/07/14 08:38:45;;;;;;;;;4.00;4.00;;;;;28.39;37.27;101104.69;5095667;27;45386;-74
2023/07/14 08:41:23;;;;;;;;;2.67;2.67;;;;;28.41;37.66;101099.94;5095834;27;45459;-75
2023/07/14 08:44:17;;;;;;;;;2.33;2.33;;;;;28.42;37.34;101096.22;5095948;27;45270;-75
2023/07/14 08:46:49;;;;;;;;;3.67;3.33;;;;;28.42;37.09;101085.50;5095539;27;45397;-74
2023/07/14 08:49:22;;;;;;;;;5.00;4.00;;;;;28.39;37.24;101081.41;5095450;27;45469;-74
2023/07/14 08:51:53;;;;;;;;;3.33;3.33;;;;;28.42;37.10;101092.75;5095397;27;45453;-74
2023/07/14 08:54:22;;;;;;;;;4.00;4.00;;;;;28.40;37.34;101080.38;5095690;27;45304;-74
2023/07/14 08:56:49;;;;;;;;;3.67;3.00;;;;;28.43;37.35;101089.00;5095615;27;45413;-74
2023/07/14 08:59:31;;;;;;;;;5.00;5.00;;;;;28.44;37.58;101082.63;5095354;27;45344;-75
2023/07/14 09:01:59;;;;;;;;;3.00;3.00;;;;;28.43;37.16;101076.47;5097551;27;45364;-74
2023/07/14 09:04:29;;;;;;;;;4.00;4.00;;;;;28.44;37.05;101066.59;5099111;27;45352;-74
2023/07/14 09:06:55;;;;;;;;;5.00;4.00;;;;;28.43;37.15;101068.44;5098466;27;45281;-73
2023/07/14 09:09:32;;;;;;;;;5.00;3.33;;;;;28.44;37.40;101064.72;5098658;27;45468;-74
2023/07/14 09:12:09;;;;;;;;;3.67;3.67;;;;;28.47;37.72;101063.50;5098951;27;45397;-74
2023/07/14 09:14:46;;;;;;;;;1.00;1.00;;;;;28.49;37.08;101066.78;5098955;27;45387;-74
2023/07/14 09:17:36;;;;;;;;;5.33;4.00;;;;;28.50;37.50;101071.06;5098667;27;45231;-74
2023/07/14 09:20:20;;;;;;;;;5.00;4.00;;;;;28.50;37.37;101090.63;5098068;27;47143;-74
2023/07/14 09:22:57;;;;;;;;;4.33;4.33;;;;;28.49;37.64;101089.00;5098548;27;45291;-74
2023/07/14 09:25:34;;;;;;;;;5.00;4.67;;;;;28.47;37.15;101091.06;5098654;27;45349;-74
2023/07/14 09:28:00;;;;;;;;;4.00;3.00;;;;;28.47;37.53;101091.06;5098694;27;45369;-74
2023/07/14 09:30:28;;;;;;;;;2.67;2.67;;;;;28.45;37.39;101090.47;5098466;27;46379;-74
2023/07/14 09:33:00;;;;;;;;;4.00;4.00;;;;;28.45;37.87;101084.28;5098515;27;46047;-74
2023/07/14 09:35:28;;;;;;;;;5.67;4.00;;;;;28.44;37.86;101088.00;5098173;27;45367;-74
2023/07/14 09:38:10;;;;;;;;;4.00;3.00;;;;;28.43;38.20;101092.50;5098379;27;45440;-74
2023/07/14 09:40:39;;;;;;;;;5.00;5.00;;;;;28.42;37.94;101080.16;5098175;27;46056;-74
2023/07/14 09:43:06;;;;;;;;;3.33;3.33;;;;;28.44;37.57;101059.38;5098294;27;45349;-74
2023/07/14 09:45:37;;;;;;;;;3.00;3.00;;;;;28.46;37.61;101040.44;5098385;27;45417;-74
2023/07/14 09:48:19;;;;;;;;;3.00;3.00;;;;;28.46;37.87;101035.09;5098233;27;45411;-74
2023/07/14 09:50:54;;;;;;;;;5.00;4.33;;;;;28.46;37.79;101016.38;5097680;27;46144;-74
2023/07/14 09:53:19;;;;;;;;;5.00;5.00;;;;;28.42;37.90;101007.13;5098065;27;45376;-74
2023/07/14 09:55:57;;;;;;;;;4.33;3.33;;;;;28.45;37.64;100998.66;5098346;27;45405;-74
2023/07/14 09:58:27;;;;;;;;;2.00;2.00;;;;;28.46;37.86;100997.63;5098235;27;45478;-74
2023/07/14 10:00:56;;;;;;;;;3.00;3.00;;;;;28.44;37.92;101000.50;5097754;27;45684;-74
2023/07/14 10:03:28;;;;;;;;;2.33;2.33;;;;;28.46;38.07;101000.31;5097491;27;45339;-74
2023/07/14 10:06:04;;;;;;;;;3.00;3.00;;;;;28.47;37.90;100986.69;5098238;27;45361;-74
2023/07/14 10:08:44;;;;;;;;;3.00;3.00;;;;;28.46;37.57;100986.94;5097883;27;45319;-74
2023/07/14 10:11:26;;;;;;;;;5.67;4.67;;;;;28.47;38.02;100981.34;5097826;27;45346;-74
2023/07/14 10:14:15;;;;;;;;;6.00;5.00;;;;;28.49;37.89;100991.84;5097101;27;45393;-73
2023/07/14 10:16:43;;;;;;;;;2.33;2.33;;;;;28.41;37.72;100971.50;5097627;27;45403;-72
2023/07/14 10:19:22;;;;;;;;;5.00;4.00;;;;;28.51;37.60;100979.06;5097358;27;45470;-74
2023/07/14 10:21:54;;;;;;;;;4.67;4.00;;;;;28.51;37.43;100971.03;5097668;27;46517;-74
2023/07/14 10:24:21;;;;;;;;;4.00;4.00;;;;;28.50;37.72;100969.38;5097627;27;45356;-74
2023/07/14 10:26:57;;;;;;;;;6.33;3.33;;;;;28.55;37.89;100966.84;5097701;27;45479;-74
2023/07/14 10:29:26;;;;;;;;;2.33;2.33;;;;;28.50;38.08;100948.78;5097554;27;45432;-74
2023/07/14 10:32:03;;;;;;;;;3.33;3.33;;;;;28.56;38.10;100946.25;5097467;27;46572;-74
2023/07/14 10:34:48;;;;;;;;;2.67;2.00;;;;;28.57;37.89;100935.34;5097082;27;45453;-74
2023/07/14 10:37:24;;;;;;;;;4.00;4.00;;;;;28.59;37.84;100924.41;5097576;27;45259;-74
2023/07/14 10:39:57;;;;;;;;;4.00;4.00;;;;;28.59;37.51;100911.84;5097397;27;45376;-74
2023/07/14 10:42:29;;;;;;;;;3.67;3.67;;;;;28.61;37.81;100916.97;5097200;27;46560;-74
2023/07/14 10:44:57;;;;;;;;;3.33;3.33;;;;;28.57;38.10;100905.91;5097273;27;45414;-74
2023/07/14 10:47:41;;;;;;;;;3.00;3.00;;;;;28.60;37.66;100907.28;5096864;27;45413;-74
2023/07/14 10:50:19;;;;;;;;;6.00;5.67;;;;;28.62;37.93;100892.66;5097193;27;45433;-74
2023/07/14 10:52:51;;;;;;;;;4.00;4.00;;;;;28.63;37.48;100866.72;5092369;27;48143;-74
2023/07/14 10:55:28;;;;;;;;;5.00;3.67;;;;;28.61;37.59;100871.47;5076705;27;45292;-74
2023/07/14 10:58:13;;;;;;;;;6.00;4.67;;;;;28.63;37.61;100861.34;5076769;27;45247;-74
2023/07/14 11:00:47;;;;;;;;;3.33;3.33;;;;;28.60;37.95;100865.28;5076786;27;45707;-74
2023/07/14 11:03:26;;;;;;;;;3.33;3.00;;;;;28.67;37.36;100870.59;5076308;27;45433;-74
2023/07/14 11:06:18;;;;;;;;;3.00;3.00;;;;;28.69;37.86;100851.59;5076564;27;45411;-74
2023/07/14 11:08:50;;;;;;;;;4.33;3.67;;;;;28.64;37.75;100836.22;5076636;28;45421;-75
2023/07/14 11:11:32;;;;;;;;;3.33;2.00;;;;;28.66;37.86;100870.78;5075280;27;45296;-75
2023/07/14 11:14:26;;;;;;;;;3.33;3.33;;;;;28.69;37.63;100831.03;5076189;27;47210;-75
2023/07/14 11:17:19;;;;;;;;;4.00;1.67;;;;;28.69;37.52;100814.97;5075742;27;45448;-75
2023/07/14 11:20:09;;;;;;;;;3.67;3.67;;;;;28.71;37.93;100817.41;5076375;27;45358;-75
2023/07/14 11:23:01;;;;;;;;;4.00;4.00;;;;;28.73;37.25;100796.56;5076313;28;45491;-75
2023/07/14 11:26:00;;;;;;;;;4.00;4.00;;;;;28.74;37.58;100793.69;5075115;27;45461;-75
2023/07/14 11:28:31;;;;;;;;;4.00;4.00;;;;;28.74;37.07;100768.75;5076262;28;45223;-75
2023/07/14 11:30:59;;;;;;;;;4.67;3.00;;;;;28.75;37.91;100770.41;5074710;28;45441;-75
2023/07/14 11:33:37;;;;;;;;;4.00;4.00;;;;;28.71;37.96;100771.88;5076283;27;45366;-75